Time;durP1;ratioP1;P1;durP2;ratioP2;P2;SDS_P1;SDS_P2;PMS_P1;PMS_P2;Temp;Humidity;BMP_temperature;BMP_pressure;BME280_temperature;BME280_humidity;BME280_pressure;Samples;Min_cycle;Max_cycle;Signal;HPM_P1;HPM_P2
2022/07/26 00:01:08;;;;;;;1.43;0.90;;;21.10;87.00;;;;;;5031921;28;20490;-76
2022/07/26 00:03:37;;;;;;;1.50;1.00;;;21.10;86.70;;;;;;5053544;28;21003;-74
2022/07/26 00:06:07;;;;;;;1.43;0.90;;;21.10;87.20;;;;;;5038730;28;20459;-75
2022/07/26 00:08:35;;;;;;;1.50;0.90;;;21.00;86.90;;;;;;5040800;28;20454;-75
2022/07/26 00:11:03;;;;;;;1.50;1.00;;;21.00;87.60;;;;;;5031348;28;20792;-75
2022/07/26 00:13:32;;;;;;;1.50;0.90;;;20.90;87.80;;;;;;5055952;28;20951;-74
2022/07/26 00:15:59;;;;;;;1.43;0.90;;;20.90;87.60;;;;;;5027153;28;20478;-76
2022/07/26 00:18:27;;;;;;;1.47;0.90;;;20.80;87.50;;;;;;5054374;28;20490;-76
2022/07/26 00:21:00;;;;;;;1.47;0.97;;;20.80;87.70;;;;;;5031519;28;20491;-75
2022/07/26 00:23:27;;;;;;;1.43;0.90;;;20.80;88.10;;;;;;5049745;28;20543;-76
2022/07/26 00:25:56;;;;;;;1.50;0.90;;;20.70;87.90;;;;;;5032484;28;20803;-76
2022/07/26 00:28:23;;;;;;;1.50;0.90;;;20.70;88.00;;;;;;5054618;28;20460;-76
2022/07/26 00:30:51;;;;;;;1.50;0.90;;;20.60;88.80;;;;;;5031723;28;20838;-76
2022/07/26 00:33:21;;;;;;;1.40;0.90;;;20.60;88.60;;;;;;5056416;28;20923;-76
2022/07/26 00:35:51;;;;;;;1.47;0.90;;;20.50;88.70;;;;;;5040434;28;20523;-75
2022/07/26 00:38:20;;;;;;;1.47;0.90;;;20.50;89.50;;;;;;5040066;28;20463;-76
2022/07/26 00:40:47;;;;;;;1.47;0.90;;;20.40;88.90;;;;;;5033773;28;20586;-76
2022/07/26 00:43:15;;;;;;;1.40;0.87;;;20.40;89.20;;;;;;5053543;28;20533;-76
2022/07/26 00:45:43;;;;;;;1.43;0.90;;;20.40;89.50;;;;;;5041237;28;20491;-76
2022/07/26 00:48:10;;;;;;;1.50;1.00;;;20.30;89.60;;;;;;5046075;28;20486;-76
2022/07/26 00:50:37;;;;;;;1.47;0.90;;;20.30;89.90;;;;;;5040944;28;20475;-75
2022/07/26 00:53:07;;;;;;;1.43;0.90;;;20.20;89.90;;;;;;5043905;28;20486;-76
2022/07/26 00:55:36;;;;;;;1.47;0.90;;;20.20;89.80;;;;;;5040123;28;20459;-74
2022/07/26 00:58:06;;;;;;;1.43;0.90;;;20.20;90.40;;;;;;5043722;28;20555;-76
2022/07/26 01:00:34;;;;;;;1.40;0.90;;;20.20;90.50;;;;;;5040345;28;20466;-76
2022/07/26 01:03:01;;;;;;;1.47;0.90;;;20.10;90.60;;;;;;5043360;28;20581;-75
2022/07/26 01:05:29;;;;;;;1.50;0.90;;;20.10;91.00;;;;;;5040219;28;20490;-77
2022/07/26 01:07:57;;;;;;;1.50;0.90;;;20.00;90.50;;;;;;5037544;28;20495;-76
2022/07/26 01:10:25;;;;;;;1.40;0.90;;;20.00;91.00;;;;;;5037814;28;20902;-75
2022/07/26 01:12:53;;;;;;;1.47;0.90;;;19.90;91.00;;;;;;5039881;28;20486;-75
2022/07/26 01:15:22;;;;;;;1.40;0.90;;;19.90;91.20;;;;;;5031132;28;20459;-76
2022/07/26 01:17:49;;;;;;;1.47;0.90;;;19.90;91.70;;;;;;5030467;28;20460;-75
2022/07/26 01:20:17;;;;;;;1.47;0.90;;;19.90;91.80;;;;;;5031881;28;20467;-76
2022/07/26 01:22:45;;;;;;;1.40;0.90;;;19.80;91.60;;;;;;5035218;28;20525;-75
2022/07/26 01:25:12;;;;;;;1.50;0.90;;;19.80;92.20;;;;;;5031255;28;20569;-76
2022/07/26 01:27:39;;;;;;;1.43;0.90;;;19.80;91.90;;;;;;5036653;28;20966;-76
2022/07/26 01:30:10;;;;;;;1.47;0.90;;;19.80;92.30;;;;;;5031251;28;20671;-76
2022/07/26 01:32:37;;;;;;;1.47;0.90;;;19.70;92.00;;;;;;5028652;28;20490;-76
2022/07/26 01:35:15;;;;;;;1.50;1.00;;;19.70;92.50;;;;;;5033474;28;20529;-77
2022/07/26 01:37:42;;;;;;;1.50;0.90;;;19.70;92.30;;;;;;5037131;28;20485;-76
2022/07/26 01:42:46;;;;;;;1.43;0.90;;;19.60;92.40;;;;;;5026677;28;21061;-77
2022/07/26 01:45:13;;;;;;;1.40;0.90;;;19.70;92.40;;;;;;5025221;28;20483;-76
2022/07/26 01:47:40;;;;;;;1.43;0.90;;;19.60;92.60;;;;;;5033729;28;20490;-75
2022/07/26 01:50:09;;;;;;;1.47;0.90;;;19.60;92.70;;;;;;5025445;28;20629;-76
2022/07/26 01:52:36;;;;;;;1.43;0.90;;;19.60;93.10;;;;;;5027221;28;20501;-75
2022/07/26 01:55:09;;;;;;;1.50;0.90;;;19.60;92.90;;;;;;5031456;28;20891;-76
2022/07/26 01:57:38;;;;;;;1.47;0.90;;;19.50;93.90;;;;;;5036165;28;20512;-76
2022/07/26 02:00:06;;;;;;;1.47;0.90;;;19.50;93.60;;;;;;5031496;28;20468;-76
2022/07/26 02:02:33;;;;;;;1.43;0.90;;;19.40;93.30;;;;;;5032602;28;20548;-76
2022/07/26 02:05:01;;;;;;;1.47;0.90;;;19.40;93.90;;;;;;5027643;28;20570;-76
2022/07/26 02:07:30;;;;;;;1.47;0.90;;;19.40;93.70;;;;;;5035302;28;20991;-75
2022/07/26 02:09:57;;;;;;;1.40;0.90;;;19.30;93.90;;;;;;5033469;28;20533;-75
2022/07/26 02:12:24;;;;;;;1.47;0.90;;;19.30;94.40;;;;;;5029882;28;20492;-75
2022/07/26 02:14:53;;;;;;;1.47;0.90;;;19.30;94.20;;;;;;5032254;28;20491;-76
2022/07/26 02:17:19;;;;;;;1.43;0.90;;;19.30;94.80;;;;;;5032406;28;20478;-76
2022/07/26 02:19:47;;;;;;;1.50;1.00;;;19.30;94.80;;;;;;5034894;28;20470;-76
2022/07/26 02:22:14;;;;;;;1.50;0.90;;;19.20;95.20;;;;;;5030377;28;20498;-75
2022/07/26 02:24:42;;;;;;;1.47;1.00;;;19.20;95.10;;;;;;5035051;28;20570;-76
2022/07/26 02:27:09;;;;;;;1.50;1.00;;;19.20;95.30;;;;;;5034709;28;20548;-76
2022/07/26 02:29:36;;;;;;;1.47;1.00;;;19.20;95.30;;;;;;5037312;28;20521;-76
2022/07/26 02:32:06;;;;;;;1.50;0.90;;;19.20;95.40;;;;;;5032505;28;20494;-76
2022/07/26 02:34:33;;;;;;;1.50;0.90;;;19.10;96.40;;;;;;5036267;28;20468;-76
2022/07/26 02:37:00;;;;;;;1.47;0.90;;;19.10;96.20;;;;;;5034065;28;20486;-77
2022/07/26 02:39:33;;;;;;;1.47;0.97;;;19.00;96.40;;;;;;5039849;28;20471;-76
2022/07/26 02:42:10;;;;;;;1.47;0.90;;;19.00;96.30;;;;;;5028814;28;20494;-75
2022/07/26 02:44:41;;;;;;;1.47;0.97;;;19.00;96.40;;;;;;5039233;28;20483;-76
2022/07/26 02:47:09;;;;;;;1.47;0.90;;;19.00;96.70;;;;;;5034683;28;20490;-76
2022/07/26 02:49:36;;;;;;;1.50;0.90;;;19.00;97.10;;;;;;5033771;28;20473;-76
2022/07/26 02:52:03;;;;;;;1.47;0.90;;;18.90;96.70;;;;;;5026316;28;20490;-75
2022/07/26 02:54:30;;;;;;;1.50;0.90;;;18.90;96.80;;;;;;5035078;28;20525;-75
2022/07/26 02:56:57;;;;;;;1.50;0.97;;;18.90;96.70;;;;;;5027667;28;20496;-75
2022/07/26 02:59:25;;;;;;;1.47;0.90;;;18.80;97.30;;;;;;5036330;28;20494;-75
2022/07/26 03:01:52;;;;;;;1.40;0.90;;;18.80;97.10;;;;;;5025213;28;20490;-75
2022/07/26 03:04:20;;;;;;;1.47;0.90;;;18.80;97.30;;;;;;5034971;28;20532;-75
2022/07/26 03:06:47;;;;;;;1.43;0.90;;;18.80;97.90;;;;;;5026155;28;20785;-74
2022/07/26 03:09:14;;;;;;;1.47;0.90;;;18.90;97.60;;;;;;5037737;28;20463;-74
2022/07/26 03:11:41;;;;;;;1.43;0.90;;;18.90;97.10;;;;;;5031185;28;20494;-75
2022/07/26 03:14:09;;;;;;;1.50;0.90;;;18.90;97.60;;;;;;5039346;28;20459;-75
2022/07/26 03:16:36;;;;;;;1.43;0.90;;;18.90;97.70;;;;;;5024657;28;20489;-75
2022/07/26 03:19:02;;;;;;;1.40;0.90;;;18.90;97.50;;;;;;5036852;28;20484;-75
2022/07/26 03:21:31;;;;;;;1.50;0.90;;;19.00;97.30;;;;;;5022436;28;20489;-75
2022/07/26 03:23:58;;;;;;;1.43;0.90;;;19.00;97.20;;;;;;5037674;28;20474;-74
2022/07/26 03:26:25;;;;;;;1.43;0.90;;;19.00;97.90;;;;;;5023425;28;20486;-75
2022/07/26 03:28:52;;;;;;;1.40;0.90;;;19.00;97.90;;;;;;5038496;28;20517;-73
2022/07/26 03:31:22;;;;;;;1.40;0.90;;;19.00;97.90;;;;;;5021403;28;20712;-75
2022/07/26 03:33:49;;;;;;;1.47;0.90;;;19.00;97.70;;;;;;5038357;28;20470;-75
2022/07/26 03:36:16;;;;;;;1.47;0.90;;;19.00;97.60;;;;;;5028687;28;20597;-75
2022/07/26 03:38:45;;;;;;;2.27;1.53;;;19.10;97.60;;;;;;5029089;28;20463;-76
2022/07/26 03:41:13;;;;;;;1.47;0.90;;;19.10;97.60;;;;;;5021608;28;20529;-76
2022/07/26 03:43:39;;;;;;;1.43;0.90;;;19.10;97.50;;;;;;5040784;28;20462;-76
2022/07/26 03:46:07;;;;;;;1.50;1.00;;;19.10;98.20;;;;;;5023891;28;20480;-75
2022/07/26 03:48:34;;;;;;;1.40;0.87;;;19.10;97.60;;;;;;5047151;28;20479;-76
2022/07/26 03:51:01;;;;;;;1.43;0.90;;;19.10;97.90;;;;;;5022641;28;20859;-76
2022/07/26 03:53:28;;;;;;;1.47;0.90;;;19.10;98.00;;;;;;5044140;28;20469;-76
2022/07/26 03:58:41;;;;;;;1.47;0.90;;;19.20;98.20;;;;;;5029520;28;20455;-76
2022/07/26 04:01:08;;;;;;;1.40;1.00;;;19.20;98.20;;;;;;5019499;28;20489;-75
2022/07/26 04:03:36;;;;;;;1.50;0.90;;;19.20;98.20;;;;;;5041233;28;20464;-75
2022/07/26 04:06:03;;;;;;;1.47;0.90;;;19.20;98.20;;;;;;5019769;28;20487;-76
2022/07/26 04:08:30;;;;;;;1.40;0.90;;;19.20;98.20;;;;;;5040755;28;20509;-75
2022/07/26 04:10:58;;;;;;;1.47;0.90;;;19.20;98.20;;;;;;5017813;28;20487;-76
2022/07/26 04:13:26;;;;;;;1.40;0.90;;;19.20;98.20;;;;;;5043204;28;20561;-77
2022/07/26 04:15:53;;;;;;;1.47;0.90;;;19.20;98.00;;;;;;5019700;28;20530;-75
2022/07/26 04:18:20;;;;;;;1.43;0.90;;;19.30;98.20;;;;;;5042402;28;20463;-75
2022/07/26 04:20:48;;;;;;;1.40;0.90;;;19.30;98.20;;;;;;5020755;28;20544;-76
2022/07/26 04:23:15;;;;;;;1.43;0.90;;;19.30;98.20;;;;;;5041772;28;21010;-76
2022/07/26 04:25:42;;;;;;;1.50;0.90;;;19.30;98.20;;;;;;5028781;28;20487;-76
2022/07/26 04:28:10;;;;;;;1.47;1.00;;;19.30;98.20;;;;;;5035218;28;20498;-75
2022/07/26 04:30:38;;;;;;;1.90;1.57;;;19.30;98.20;;;;;;5030746;28;20463;-77
2022/07/26 04:33:06;;;;;;;1.40;0.90;;;19.30;98.20;;;;;;5035397;28;20478;-76
2022/07/26 04:35:33;;;;;;;1.47;0.90;;;19.20;98.20;;;;;;5030703;28;20862;-77
2022/07/26 04:38:02;;;;;;;1.43;0.90;;;19.30;98.20;;;;;;5036761;28;20486;-76
2022/07/26 04:40:32;;;;;;;1.47;0.90;;;19.30;98.20;;;;;;5032561;28;20495;-76
2022/07/26 04:43:00;;;;;;;1.40;0.90;;;19.30;98.20;;;;;;5033030;28;20520;-77
2022/07/26 04:45:29;;;;;;;1.40;0.90;;;19.30;98.20;;;;;;5031628;28;20491;-77
2022/07/26 04:47:56;;;;;;;1.40;0.90;;;19.30;98.20;;;;;;5031065;28;20463;-75
2022/07/26 04:50:24;;;;;;;1.50;0.90;;;19.40;98.20;;;;;;5031515;28;20470;-77
2022/07/26 04:52:52;;;;;;;1.47;0.90;;;19.40;98.20;;;;;;5034620;28;20486;-76
2022/07/26 04:55:20;;;;;;;1.50;1.10;;;19.40;98.20;;;;;;5034527;28;20467;-75
2022/07/26 04:57:48;;;;;;;1.47;0.90;;;19.40;98.20;;;;;;5026074;28;20561;-76
2022/07/26 05:00:20;;;;;;;1.50;0.90;;;19.40;98.20;;;;;;5033013;28;20550;-76
2022/07/26 05:02:49;;;;;;;1.43;0.90;;;19.40;98.20;;;;;;5039393;28;20773;-75
2022/07/26 05:05:16;;;;;;;1.43;0.90;;;19.50;98.20;;;;;;5034236;28;20974;-75
2022/07/26 05:07:48;;;;;;;1.43;0.90;;;19.50;98.20;;;;;;5038139;28;20482;-76
2022/07/26 05:10:17;;;;;;;1.40;0.90;;;19.50;98.20;;;;;;5033373;28;20904;-76
2022/07/26 05:12:45;;;;;;;1.43;0.90;;;19.60;98.20;;;;;;5036990;28;20998;-76
2022/07/26 05:15:14;;;;;;;1.50;0.90;;;19.60;98.20;;;;;;5034803;28;20486;-78
2022/07/26 05:17:42;;;;;;;1.50;0.90;;;19.60;98.20;;;;;;5042536;28;20498;-77
2022/07/26 05:20:14;;;;;;;1.47;0.90;;;19.60;98.20;;;;;;5033853;28;20998;-77
2022/07/26 05:22:42;;;;;;;1.43;0.90;;;19.60;98.20;;;;;;5035908;28;20566;-76
2022/07/26 05:25:10;;;;;;;1.40;0.90;;;19.70;98.20;;;;;;5031650;28;20567;-76
2022/07/26 05:27:38;;;;;;;1.43;0.90;;;19.70;98.20;;;;;;5034523;28;20553;-76
2022/07/26 05:30:06;;;;;;;1.47;0.90;;;19.70;98.20;;;;;;5032486;28;20948;-77
2022/07/26 05:32:33;;;;;;;1.47;0.90;;;19.80;98.20;;;;;;5030860;28;20487;-77
2022/07/26 05:35:00;;;;;;;1.47;0.90;;;19.80;98.20;;;;;;5029827;28;20548;-77
2022/07/26 05:37:29;;;;;;;1.43;0.90;;;19.80;98.20;;;;;;5039072;28;20494;-76
2022/07/26 05:39:56;;;;;;;1.47;0.90;;;19.90;98.20;;;;;;5036903;28;20948;-77
2022/07/26 05:42:24;;;;;;;1.43;0.90;;;19.90;98.20;;;;;;5033223;28;20513;-76
2022/07/26 05:44:51;;;;;;;1.40;0.90;;;20.00;98.20;;;;;;5035986;28;20478;-77
2022/07/26 05:47:18;;;;;;;1.50;0.90;;;20.10;98.20;;;;;;5032983;28;20605;-76
2022/07/26 05:49:46;;;;;;;1.47;0.90;;;20.10;98.20;;;;;;5036338;28;20467;-76
2022/07/26 05:52:14;;;;;;;1.50;0.90;;;20.20;98.20;;;;;;5034360;28;20489;-76
2022/07/26 05:54:42;;;;;;;1.47;0.90;;;20.20;98.20;;;;;;5035419;28;21018;-75
2022/07/26 05:57:10;;;;;;;1.43;0.90;;;20.30;98.10;;;;;;5030004;28;20482;-76
2022/07/26 05:59:37;;;;;;;1.50;0.90;;;20.30;98.20;;;;;;5025571;28;20980;-77
2022/07/26 06:02:06;;;;;;;1.50;0.83;;;20.40;98.10;;;;;;5026404;28;20497;-75
2022/07/26 06:04:34;;;;;;;1.47;0.90;;;20.40;98.20;;;;;;5033165;28;20501;-76
2022/07/26 06:07:02;;;;;;;1.50;0.90;;;20.40;98.10;;;;;;5032841;28;20509;-76
2022/07/26 06:09:29;;;;;;;1.50;0.90;;;20.40;98.20;;;;;;5039298;28;20471;-76
2022/07/26 06:11:58;;;;;;;1.47;0.90;;;20.40;98.20;;;;;;5032251;28;20500;-76
2022/07/26 06:14:26;;;;;;;1.47;0.90;;;20.40;98.20;;;;;;5032845;28;20467;-77
2022/07/26 06:16:54;;;;;;;1.40;0.90;;;20.40;98.20;;;;;;5031250;28;20486;-77
2022/07/26 06:19:21;;;;;;;1.43;0.90;;;20.40;98.20;;;;;;5041788;28;20474;-77
2022/07/26 06:21:49;;;;;;;1.47;0.90;;;20.50;98.20;;;;;;5029554;28;20520;-75
2022/07/26 06:24:16;;;;;;;1.43;0.90;;;20.50;98.20;;;;;;5040739;28;20475;-76
2022/07/26 06:26:45;;;;;;;1.47;0.90;;;20.60;98.20;;;;;;5029533;28;20490;-78
2022/07/26 06:29:14;;;;;;;1.50;0.90;;;20.70;98.20;;;;;;5040084;28;20467;-77
2022/07/26 06:31:41;;;;;;;1.47;0.90;;;20.70;98.10;;;;;;5028258;28;20538;-76
2022/07/26 06:34:08;;;;;;;1.47;0.90;;;20.70;97.60;;;;;;5034504;28;21036;-78
2022/07/26 06:36:35;;;;;;;1.50;0.90;;;20.80;97.80;;;;;;5027393;28;20587;-77
2022/07/26 06:39:03;;;;;;;1.47;0.90;;;20.80;97.90;;;;;;5045901;28;20459;-76
2022/07/26 06:41:31;;;;;;;1.47;0.90;;;20.90;97.40;;;;;;5030287;28;21085;-77
2022/07/26 06:43:59;;;;;;;1.47;0.90;;;20.90;97.60;;;;;;5043561;28;20471;-77
2022/07/26 06:46:30;;;;;;;1.50;0.90;;;20.90;97.60;;;;;;5033051;28;20482;-77
2022/07/26 06:49:01;;;;;;;1.47;0.90;;;20.90;97.30;;;;;;5045542;28;20463;-77
2022/07/26 06:51:56;;;;;;;;;;;;;;;;;;;;;
2022/07/26 06:54:23;;;;;;;1.47;0.90;;;20.80;98.10;;;;;;5031211;28;20896;-75
2022/07/26 06:56:57;;;;;;;1.43;0.90;;;20.80;98.20;;;;;;5032610;28;20463;-75
2022/07/26 06:59:24;;;;;;;1.47;0.90;;;20.80;98.10;;;;;;5032700;28;20451;-78
2022/07/26 07:01:53;;;;;;;1.50;0.90;;;20.80;98.10;;;;;;5032282;23;20518;-76
2022/07/26 07:04:20;;;;;;;1.50;0.90;;;20.80;98.20;;;;;;5042699;28;20558;-77
2022/07/26 07:06:51;;;;;;;1.47;0.90;;;20.80;98.20;;;;;;5030663;28;20585;-76
2022/07/26 07:09:18;;;;;;;1.47;0.90;;;20.80;98.20;;;;;;5031598;28;20499;-76
2022/07/26 07:11:48;;;;;;;1.47;0.90;;;20.90;98.20;;;;;;5027117;28;20537;-76
2022/07/26 07:14:15;;;;;;;1.47;0.90;;;21.00;98.20;;;;;;5032622;28;20463;-77
2022/07/26 07:16:42;;;;;;;1.50;0.90;;;21.00;98.00;;;;;;5027953;28;20481;-77
2022/07/26 07:19:12;;;;;;;1.50;0.90;;;21.10;98.00;;;;;;5042434;28;20471;-76
2022/07/26 07:21:40;;;;;;;1.43;0.90;;;21.10;97.80;;;;;;5029128;28;20524;-75
2022/07/26 07:24:08;;;;;;;1.50;0.90;;;21.20;97.50;;;;;;5040793;28;20558;-76
2022/07/26 07:26:44;;;;;;;1.47;0.90;;;21.20;97.60;;;;;;5030798;28;20859;-76
2022/07/26 07:29:13;;;;;;;1.47;0.90;;;21.20;97.60;;;;;;5035989;28;20554;-76
2022/07/26 07:31:44;;;;;;;1.50;0.90;;;21.20;97.70;;;;;;5029423;28;20490;-77
2022/07/26 07:34:16;;;;;;;1.47;0.90;;;21.30;97.50;;;;;;5035579;28;20490;-76
2022/07/26 07:36:47;;;;;;;1.47;0.87;;;21.30;97.20;;;;;;5030665;28;21007;-76
2022/07/26 07:39:18;;;;;;;1.50;0.90;;;21.40;97.10;;;;;;5041147;28;20463;-76
2022/07/26 07:41:46;;;;;;;1.47;0.90;;;21.50;97.20;;;;;;5031779;28;20489;-77
2022/07/26 07:44:14;;;;;;;1.47;0.90;;;21.50;97.20;;;;;;5035153;28;20467;-74
2022/07/26 07:46:42;;;;;;;1.47;0.90;;;21.60;97.00;;;;;;5028928;28;20478;-76
2022/07/26 07:49:09;;;;;;;1.47;0.90;;;21.60;96.80;;;;;;5041364;28;20944;-77
2022/07/26 07:51:38;;;;;;;1.47;0.90;;;21.70;96.70;;;;;;5025890;28;20533;-75
2022/07/26 07:54:07;;;;;;;1.43;0.90;;;21.70;96.70;;;;;;5042309;28;20530;-76
2022/07/26 07:56:37;;;;;;;1.43;0.90;;;21.70;96.40;;;;;;5033542;28;20520;-77
2022/07/26 07:59:13;;;;;;;1.50;0.90;;;21.80;96.40;;;;;;5046281;28;20951;-78
2022/07/26 08:01:40;;;;;;;1.50;1.00;;;21.90;96.30;;;;;;5037021;28;20534;-76
2022/07/26 08:04:08;;;;;;;1.50;0.90;;;22.00;96.30;;;;;;5049382;28;20478;-76
2022/07/26 08:09:20;;;;;;;1.50;0.90;;;22.10;95.10;;;;;;5044865;28;20513;-76
2022/07/26 08:11:47;;;;;;;1.47;0.90;;;22.10;95.30;;;;;;5030019;28;20490;-76
2022/07/26 08:14:14;;;;;;;1.50;0.90;;;22.20;95.40;;;;;;5045627;28;20558;-76
2022/07/26 08:16:43;;;;;;;1.50;0.90;;;22.20;95.20;;;;;;5024067;28;20517;-76
2022/07/26 08:19:18;;;;;;;1.50;0.90;;;22.20;95.60;;;;;;5040098;28;20462;-76
2022/07/26 08:21:45;;;;;;;1.47;0.90;;;22.20;95.20;;;;;;5035689;28;20504;-76
2022/07/26 08:24:20;;;;;;;1.50;0.90;;;22.30;94.90;;;;;;5045567;28;20471;-77
2022/07/26 08:26:54;;;;;;;1.50;0.90;;;22.50;94.40;;;;;;5032928;28;20493;-78
2022/07/26 08:29:27;;;;;;;1.43;0.90;;;22.60;93.70;;;;;;5044262;28;20479;-77
2022/07/26 08:31:58;;;;;;;1.50;0.93;;;22.70;93.80;;;;;;5060592;23;20487;-77
2022/07/26 08:34:25;;;;;;;1.43;0.90;;;22.80;93.70;;;;;;5038904;28;20486;-78
2022/07/26 08:36:53;;;;;;;1.43;0.90;;;23.00;93.50;;;;;;5040016;28;20483;-78
2022/07/26 08:39:22;;;;;;;1.40;0.90;;;23.10;92.80;;;;;;5058667;28;20502;-77
2022/07/26 08:41:53;;;;;;;1.43;0.90;;;23.10;92.80;;;;;;5048283;28;20550;-76
2022/07/26 08:44:23;;;;;;;1.43;0.90;;;23.20;92.50;;;;;;5056334;28;20557;-77
2022/07/26 08:46:51;;;;;;;1.47;0.90;;;23.30;92.10;;;;;;5039061;28;21183;-77
2022/07/26 08:49:26;;;;;;;1.47;0.90;;;23.40;91.50;;;;;;5049006;28;20466;-77
2022/07/26 08:51:58;;;;;;;1.47;0.90;;;23.40;91.70;;;;;;5042914;28;20554;-78
2022/07/26 08:54:39;;;;;;;1.47;0.90;;;23.50;91.80;;;;;;5044376;28;20852;-76
2022/07/26 08:57:17;;;;;;;1.47;0.90;;;23.70;91.40;;;;;;5049894;28;20487;-75
2022/07/26 09:00:10;;;;;;;1.47;0.90;;;23.80;91.30;;;;;;5046410;28;20455;-77
2022/07/26 09:02:40;;;;;;;1.50;0.90;;;24.00;90.20;;;;;;5034902;28;20496;-76
2022/07/26 09:05:10;;;;;;;1.50;0.90;;;24.20;89.40;;;;;;5027512;28;20960;-78
2022/07/26 09:07:43;;;;;;;1.50;0.80;;;24.40;88.70;;;;;;5044906;28;20550;-76
2022/07/26 09:10:17;;;;;;;1.50;0.90;;;24.60;87.90;;;;;;5040256;28;20497;-77
2022/07/26 09:12:45;;;;;;;1.40;0.87;;;24.60;87.00;;;;;;5050610;28;20483;-78
2022/07/26 09:15:20;;;;;;;1.47;0.90;;;24.50;87.50;;;;;;5030368;28;20521;-76
2022/07/26 09:17:53;;;;;;;1.40;0.90;;;24.60;88.40;;;;;;5049966;28;20470;-76
2022/07/26 09:20:22;;;;;;;1.47;0.80;;;24.70;87.90;;;;;;5033152;28;20465;-76
2022/07/26 09:23:02;;;;;;;1.50;0.90;;;25.00;87.40;;;;;;5042057;28;21026;-77
2022/07/26 09:25:32;;;;;;;1.50;0.90;;;25.40;86.30;;;;;;5029579;28;20474;-75
2022/07/26 09:27:59;;;;;;;1.50;0.90;;;25.80;84.30;;;;;;5035361;28;20478;-76
2022/07/26 09:30:28;;;;;;;1.50;1.00;;;26.00;82.90;;;;;;5023500;28;20485;-77
2022/07/26 09:33:04;;;;;;;1.47;0.90;;;26.10;81.50;;;;;;5032812;28;20478;-76
2022/07/26 09:35:33;;;;;;;1.60;1.30;;;26.10;82.30;;;;;;5020868;28;20965;-75
2022/07/26 09:38:01;;;;;;;1.50;0.87;;;26.30;82.40;;;;;;5030565;28;20474;-74
2022/07/26 09:40:35;;;;;;;1.50;0.80;;;26.50;81.40;;;;;;5020833;28;20460;-75
2022/07/26 09:43:03;;;;;;;1.50;0.90;;;26.80;79.50;;;;;;5028016;28;20488;-77
2022/07/26 09:45:34;;;;;;;1.50;0.80;;;27.20;78.70;;;;;;5029525;28;20470;-76
2022/07/26 09:48:02;;;;;;;1.47;0.80;;;27.40;77.90;;;;;;5033315;28;20470;-77
2022/07/26 09:50:31;;;;;;;1.47;0.80;;;27.50;76.40;;;;;;5023812;28;21050;-76
2022/07/26 09:53:11;;;;;;;1.50;0.90;;;27.20;74.30;;;;;;5047811;28;20480;-75
2022/07/26 09:55:56;;;;;;;1.47;0.80;;;27.00;77.00;;;;;;5030581;28;20863;-76
2022/07/26 09:58:24;;;;;;;1.40;0.87;;;26.90;77.00;;;;;;5026103;28;20505;-77
2022/07/26 10:00:51;;;;;;;1.40;0.80;;;27.00;77.80;;;;;;5018094;28;20581;-75
2022/07/26 10:03:47;;;;;;;1.47;0.90;;;27.00;77.60;;;;;;5062916;28;20466;-77
2022/07/26 10:06:14;;;;;;;1.43;0.80;;;27.00;77.60;;;;;;5032639;28;20484;-76
2022/07/26 10:08:43;;;;;;;1.77;1.20;;;27.10;77.40;;;;;;5048762;28;20494;-75
2022/07/26 10:11:13;;;;;;;1.50;0.80;;;27.30;77.90;;;;;;5024479;28;20474;-77
2022/07/26 10:13:49;;;;;;;1.47;0.90;;;27.70;76.10;;;;;;5037045;28;20463;-76
2022/07/26 10:16:30;;;;;;;1.43;0.80;;;27.80;74.60;;;;;;5027454;28;20489;-77
2022/07/26 10:18:58;;;;;;;1.40;0.80;;;27.90;74.30;;;;;;5036386;28;20485;-76
2022/07/26 10:21:28;;;;;;;1.50;0.80;;;27.90;74.50;;;;;;5031113;28;20470;-76
2022/07/26 10:23:57;;;;;;;1.40;0.80;;;27.80;73.60;;;;;;5046925;28;20455;-77
2022/07/26 10:26:44;;;;;;;1.50;0.80;;;27.50;74.40;;;;;;5033180;28;21046;-78
2022/07/26 10:29:26;;;;;;;1.50;0.80;;;27.00;76.30;;;;;;5045666;28;20475;-77
2022/07/26 10:32:22;;;;;;;1.50;0.90;;;26.70;77.20;;;;;;5039195;28;20484;-77
2022/07/26 10:34:50;;;;;;;1.43;0.80;;;26.50;77.40;;;;;;5033450;28;20466;-78
2022/07/26 10:37:28;;;;;;;1.47;0.80;;;26.40;76.60;;;;;;5043212;28;20474;-77
2022/07/26 10:40:19;;;;;;;1.60;1.20;;;26.20;77.30;;;;;;5036456;28;20462;-78
2022/07/26 10:42:49;;;;;;;1.47;0.90;;;25.90;76.80;;;;;;5038414;28;20486;-77
2022/07/26 10:45:19;;;;;;;1.47;0.80;;;26.10;78.20;;;;;;5037997;28;20809;-76
2022/07/26 10:48:12;;;;;;;1.47;0.90;;;26.20;76.60;;;;;;5047097;28;20514;-77
2022/07/26 10:50:41;;;;;;;1.47;0.80;;;26.50;75.30;;;;;;5034408;28;20490;-76
2022/07/26 10:53:09;;;;;;;1.70;1.20;;;26.80;74.80;;;;;;5023402;28;20900;-76
2022/07/26 10:55:50;;;;;;;1.50;0.80;;;27.20;73.80;;;;;;5032873;28;20890;-76
2022/07/26 10:58:20;;;;;;;1.50;0.80;;;27.90;73.70;;;;;;5027962;28;20569;-76
2022/07/26 11:00:58;;;;;;;1.40;0.80;;;28.50;71.20;;;;;;5029166;28;20578;-76
2022/07/26 11:03:26;;;;;;;1.47;0.80;;;28.80;70.10;;;;;;5051457;28;20462;-77
2022/07/26 11:05:54;;;;;;;1.50;0.80;;;28.80;69.60;;;;;;5027057;28;20470;-77
2022/07/26 11:08:30;;;;;;;1.50;0.80;;;28.80;67.00;;;;;;5050471;28;20486;-78
2022/07/26 11:10:57;;;;;;;1.40;0.80;;;28.70;67.90;;;;;;5022886;28;20731;-77
2022/07/26 11:13:27;;;;;;;1.43;0.80;;;28.80;66.90;;;;;;5052996;28;20471;-78
2022/07/26 11:16:01;;;;;;;1.47;0.80;;;29.10;68.60;;;;;;5033834;28;20530;-76
2022/07/26 11:18:31;;;;;;;1.47;0.80;;;29.50;66.70;;;;;;5048510;28;20473;-77
2022/07/26 11:21:08;;;;;;;1.43;0.80;;;29.60;66.70;;;;;;5027100;28;20490;-77
2022/07/26 11:23:37;;;;;;;1.40;0.80;;;29.80;67.40;;;;;;5049253;28;20512;-77
2022/07/26 11:26:07;;;;;;;1.43;0.80;;;29.90;66.90;;;;;;5028125;28;20482;-78
2022/07/26 11:28:54;;;;;;;1.47;0.90;;;29.80;67.40;;;;;;5051330;28;20501;-77
2022/07/26 11:31:27;;;;;;;1.50;0.80;;;29.40;67.40;;;;;;5033488;28;20481;-77
2022/07/26 11:33:57;;;;;;;1.47;0.80;;;29.60;67.30;;;;;;5062044;28;20478;-78
2022/07/26 11:36:44;;;;;;;1.50;0.80;;;29.30;69.00;;;;;;5029559;28;20473;-77
2022/07/26 11:39:13;;;;;;;1.47;0.80;;;28.80;70.40;;;;;;5042100;28;20830;-80
2022/07/26 11:41:51;;;;;;;1.43;0.80;;;28.40;71.70;;;;;;5044983;28;20477;-76
2022/07/26 11:44:22;;;;;;;1.47;0.80;;;28.20;72.70;;;;;;5045729;28;20480;-76
2022/07/26 11:46:50;;;;;;;1.60;1.37;;;27.90;73.00;;;;;;5037601;28;20522;-77
2022/07/26 11:49:20;;;;;;;1.47;0.90;;;27.70;74.10;;;;;;5048547;28;20462;-77
2022/07/26 11:51:53;;;;;;;1.43;0.80;;;27.40;74.90;;;;;;5036352;28;20481;-78
2022/07/26 11:54:21;;;;;;;1.40;0.80;;;27.20;75.20;;;;;;5052601;28;20477;-77
2022/07/26 11:56:53;;;;;;;1.43;0.90;;;27.00;75.90;;;;;;5032288;28;20539;-77
2022/07/26 11:59:31;;;;;;;1.50;0.80;;;26.80;76.50;;;;;;5043301;28;20500;-77
2022/07/26 12:02:01;;;;;;;1.40;0.80;;;26.70;75.80;;;;;;5032082;28;20485;-76
2022/07/26 12:04:31;;;;;;;1.43;0.80;;;26.70;77.00;;;;;;5047680;28;20459;-79
2022/07/26 12:07:02;;;;;;;1.40;0.80;;;26.70;77.10;;;;;;5047876;28;20530;-76
2022/07/26 12:09:32;;;;;;;1.47;0.80;;;26.80;77.30;;;;;;5043999;28;20968;-78
2022/07/26 12:12:00;;;;;;;1.40;0.80;;;27.00;76.30;;;;;;5036611;28;20510;-77
2022/07/26 12:14:33;;;;;;;1.47;0.80;;;27.10;75.10;;;;;;5044259;28;20469;-77
2022/07/26 12:17:11;;;;;;;1.47;0.90;;;27.50;75.40;;;;;;5037806;28;20886;-77
2022/07/26 12:19:39;;;;;;;1.50;0.90;;;27.90;73.70;;;;;;5043171;28;20557;-78
2022/07/26 12:22:14;;;;;;;1.47;0.80;;;28.10;73.80;;;;;;5030226;28;20494;-77
2022/07/26 12:24:44;;;;;;;1.47;0.80;;;28.30;73.10;;;;;;5040635;28;20742;-77
2022/07/26 12:27:18;;;;;;;1.47;0.80;;;28.10;72.80;;;;;;5046033;28;20520;-77
2022/07/26 12:29:48;;;;;;;1.43;0.80;;;28.10;73.90;;;;;;5042828;28;20844;-76
2022/07/26 12:32:17;;;;;;;1.43;0.80;;;28.10;72.50;;;;;;5040790;28;20514;-76
2022/07/26 12:34:57;;;;;;;1.43;0.90;;;28.00;72.20;;;;;;5045673;28;20528;-76
2022/07/26 12:37:25;;;;;;;1.47;0.80;;;27.70;72.90;;;;;;5040768;28;20473;-77
2022/07/26 12:40:05;;;;;;;1.43;0.90;;;27.50;73.40;;;;;;5041459;28;20471;-77
2022/07/26 12:42:35;;;;;;;1.40;0.80;;;27.10;73.90;;;;;;5049694;28;20517;-77
2022/07/26 12:45:05;;;;;;;1.50;0.90;;;26.80;74.50;;;;;;5034532;28;20991;-76
2022/07/26 12:47:35;;;;;;;1.50;0.90;;;26.60;75.60;;;;;;5045849;28;20481;-77
2022/07/26 12:50:03;;;;;;;1.50;0.80;;;26.50;75.70;;;;;;5039981;28;20843;-78
2022/07/26 12:52:32;;;;;;;1.50;0.90;;;26.30;75.80;;;;;;5043749;28;20537;-78
2022/07/26 12:55:00;;;;;;;1.50;0.90;;;26.20;76.70;;;;;;5041477;28;20721;-77
2022/07/26 12:57:28;;;;;;;1.50;0.90;;;26.00;77.50;;;;;;5055871;28;20548;-77
2022/07/26 12:59:57;;;;;;;1.50;0.87;;;26.00;77.90;;;;;;5047574;28;20565;-77
2022/07/26 13:02:29;;;;;;;1.50;0.87;;;25.90;78.40;;;;;;5046516;28;20892;-78
2022/07/26 13:04:57;;;;;;;1.40;0.83;;;25.80;79.10;;;;;;5042689;28;20561;-75
2022/07/26 13:07:25;;;;;;;1.47;0.80;;;25.80;79.10;;;;;;5040830;28;20534;-76
2022/07/26 13:09:53;;;;;;;1.50;0.90;;;25.70;79.40;;;;;;5041573;28;20470;-77